Time;durP1;ratioP1;P1;durP2;ratioP2;P2;SDS_P1;SDS_P2;PMS_P1;PMS_P2;Temp;Humidity;BMP_temperature;BMP_pressure;BME280_temperature;BME280_humidity;BME280_pressure;Samples;Min_cycle;Max_cycle;Signal;HPM_P1;HPM_P2
2023/04/08 00:00:57;;;;;;;12.80;8.07;;;;;;;-143.84;48.86;45142.38;5128956;27;20450;-69
2023/04/08 00:03:24;;;;;;;12.27;9.60;;;;;;;-143.84;49.22;45170.94;5129355;27;20478;-69
2023/04/08 00:05:51;;;;;;;10.57;8.60;;;;;;;-143.84;49.48;45197.59;5130026;27;20436;-69
2023/04/08 00:08:18;;;;;;;9.37;8.47;;;;;;;-143.84;48.94;45186.16;5129821;27;20519;-69
2023/04/08 00:10:45;;;;;;;9.33;7.63;;;;;;;-143.84;48.61;45184.25;5129439;27;20446;-69
2023/04/08 00:13:13;;;;;;;9.63;8.23;;;;;;;-143.84;48.65;45153.81;5129547;27;20434;-69
2023/04/08 00:15:42;;;;;;;9.82;8.82;;;;;;;-143.84;48.37;45167.13;5129592;27;20987;-69
2023/04/08 00:18:10;;;;;;;12.77;8.45;;;;;;;-143.84;47.57;45169.03;5129519;27;20256;-69
2023/04/08 00:20:37;;;;;;;14.33;7.73;;;;;;;-143.84;46.15;45150.00;5129686;27;20608;-69
2023/04/08 00:23:04;;;;;;;16.58;9.55;;;;;;;-143.84;46.21;45151.91;5128816;27;20433;-69
2023/04/08 00:25:31;;;;;;;11.53;9.30;;;;;;;-143.84;46.95;45165.22;5128616;27;20205;-69
2023/04/08 00:27:58;;;;;;;15.10;8.83;;;;;;;-143.84;46.71;45150.00;5129448;27;20446;-69
2023/04/08 00:30:26;;;;;;;10.73;8.17;;;;;;;-143.84;47.32;45170.94;5129190;27;20932;-69
2023/04/08 00:32:55;;;;;;;9.40;8.48;;;;;;;-143.84;46.86;45153.81;5128121;27;20943;-69
2023/04/08 00:35:23;;;;;;;11.03;8.40;;;;;;;-143.84;47.26;45165.22;5129066;27;20205;-69
2023/04/08 00:37:50;;;;;;;9.60;8.60;;;;;;;-143.84;46.03;45174.75;5128962;27;20435;-69
2023/04/08 00:40:18;;;;;;;28.27;8.90;;;;;;;-143.84;46.92;45161.41;5129185;27;20577;-69
2023/04/08 00:42:45;;;;;;;10.23;9.15;;;;;;;-143.84;48.43;45148.09;5129277;27;20438;-69
2023/04/08 00:45:14;;;;;;;11.07;8.80;;;;;;;-143.84;48.03;45144.28;5129118;27;20228;-69
2023/04/08 00:47:41;;;;;;;9.87;8.83;;;;;;;-143.84;45.55;45159.50;5130525;27;21243;-69
2023/04/08 00:50:11;;;;;;;11.47;8.90;;;;;;;-143.84;44.91;45140.47;5133485;27;20502;-69
2023/04/08 00:52:38;;;;;;;16.30;10.45;;;;;;;-143.84;44.68;45188.06;5133295;27;20442;-69
2023/04/08 00:55:06;;;;;;;9.37;8.43;;;;;;;-143.84;45.58;45161.41;5132919;27;20213;-69
2023/04/08 00:57:33;;;;;;;13.23;9.53;;;;;;;-143.84;46.52;45172.84;5132999;27;21140;-69
2023/04/08 01:00:01;;;;;;;19.25;10.32;;;;;;;-143.84;47.05;45155.69;5133022;27;20818;-69
2023/04/08 01:02:36;;;;;;;20.73;10.03;;;;;;;-143.84;47.87;45144.28;5133054;27;20201;-69
2023/04/08 01:05:05;;;;;;;13.43;9.73;;;;;;;-143.84;48.31;45153.81;5132827;27;20558;-68
2023/04/08 01:07:36;;;;;;;18.93;10.17;;;;;;;-143.84;48.40;45167.13;5132494;27;20443;-69
2023/04/08 01:10:10;;;;;;;15.70;10.47;;;;;;;-143.84;48.65;45155.69;5132645;27;20955;-69
2023/04/08 01:12:43;;;;;;;18.83;11.20;;;;;;;-143.84;49.22;45163.31;5132894;27;20443;-69
2023/04/08 01:15:12;;;;;;;18.33;11.10;;;;;;;-143.84;49.68;45136.66;5132515;27;20197;-69
2023/04/08 01:17:41;;;;;;;23.50;11.93;;;;;;;-143.84;49.52;45176.66;5132684;27;20785;-69
2023/04/08 01:20:10;;;;;;;19.70;10.50;;;;;;;-143.84;49.54;45146.19;5131436;27;20442;-69
2023/04/08 01:22:58;;;;;;;36.10;12.50;;;;;;;-143.84;50.46;45180.47;5131679;27;20499;-70
2023/04/08 01:25:32;;;;;;;20.83;11.70;;;;;;;-143.84;51.90;45176.66;5132479;27;20480;-68
2023/04/08 01:28:03;;;;;;;19.70;11.43;;;;;;;-143.84;52.04;45159.50;5132266;27;20534;-69
2023/04/08 01:30:32;;;;;;;16.30;9.83;;;;;;;-143.84;51.83;45163.31;5131548;27;20197;-69
2023/04/08 01:33:02;;;;;;;19.10;10.53;;;;;;;-143.84;52.35;45163.31;5131378;27;20438;-69
2023/04/08 01:35:31;;;;;;;15.67;10.63;;;;;;;-143.84;51.93;45155.69;5131778;27;20446;-68
2023/04/08 01:37:59;;;;;;;16.90;11.40;;;;;;;-143.84;51.70;45174.75;5130812;27;20427;-68
2023/04/08 01:40:26;;;;;;;16.93;11.97;;;;;;;-143.84;51.93;45170.94;5130661;27;21022;-68
2023/04/08 01:42:56;;;;;;;14.23;11.27;;;;;;;-143.84;51.65;45144.28;5131162;27;20868;-68
2023/04/08 01:45:25;;;;;;;14.73;12.10;;;;;;;-143.84;50.99;45186.16;5130981;27;21074;-68
2023/04/08 01:47:53;;;;;;;19.67;14.27;;;;;;;-143.84;51.42;45167.13;5131648;27;20504;-68
2023/04/08 01:50:22;;;;;;;18.63;13.57;;;;;;;-143.84;51.62;45144.28;5131252;27;20447;-68
2023/04/08 01:52:52;;;;;;;24.00;14.50;;;;;;;-143.84;52.66;45150.00;5131266;27;20434;-69
2023/04/08 01:55:20;;;;;;;23.57;15.27;;;;;;;-143.84;50.45;45161.41;5131555;27;20521;-68
2023/04/08 01:57:52;;;;;;;19.20;13.97;;;;;;;-143.84;50.90;45155.69;5131675;27;20436;-69
2023/04/08 02:00:22;;;;;;;14.83;13.00;;;;;;;-143.84;52.72;45174.75;5131704;27;20446;-69
2023/04/08 02:02:52;;;;;;;20.42;14.15;;;;;;;-143.84;53.35;45151.91;5131858;27;20434;-69
2023/04/08 02:05:19;;;;;;;16.77;13.53;;;;;;;-143.84;53.89;45186.16;5131313;27;20217;-69
2023/04/08 02:07:47;;;;;;;28.13;14.13;;;;;;;-143.84;53.99;45195.69;5131644;27;20431;-69
2023/04/08 02:10:15;;;;;;;27.70;15.10;;;;;;;-143.84;53.95;45165.22;5131333;27;20447;-68
2023/04/08 02:12:43;;;;;;;22.27;15.30;;;;;;;-143.84;54.98;45188.06;5130734;27;20447;-69
2023/04/08 02:15:11;;;;;;;19.33;14.27;;;;;;;-143.84;55.65;45151.91;5130913;27;20881;-69
2023/04/08 02:17:45;;;;;;;24.42;14.70;;;;;;;-143.84;55.80;45150.00;5131586;27;20453;-68
2023/04/08 02:20:18;;;;;;;19.60;15.47;;;;;;;-143.84;56.13;45151.91;5131124;27;20190;-68
2023/04/08 02:22:49;;;;;;;20.20;14.17;;;;;;;-143.84;56.22;45153.81;5131166;27;21049;-68
2023/04/08 02:25:21;;;;;;;20.97;14.90;;;;;;;-143.84;56.43;45209.03;5131032;27;20474;-68
2023/04/08 02:27:49;;;;;;;28.73;15.67;;;;;;;-143.84;54.68;45172.84;5131133;27;20582;-68
2023/04/08 02:30:17;;;;;;;21.37;15.70;;;;;;;-143.84;55.69;45172.84;5130935;27;20445;-68
2023/04/08 02:32:45;;;;;;;22.00;16.00;;;;;;;-143.84;56.02;45167.13;5131360;27;20496;-71
2023/04/08 02:35:14;;;;;;;25.97;19.33;;;;;;;-143.84;57.47;45132.84;5130828;27;20531;-71
2023/04/08 02:37:43;;;;;;;29.10;18.03;;;;;;;-143.84;58.23;45163.31;5130089;27;21236;-70
2023/04/08 02:40:24;;;;;;;25.67;17.63;;;;;;;-143.84;58.97;45167.13;5129636;27;20491;-70
2023/04/08 02:42:51;;;;;;;28.03;18.70;;;;;;;-143.84;58.90;45157.59;5130076;27;20438;-70
2023/04/08 02:45:19;;;;;;;24.83;16.87;;;;;;;-143.84;58.92;45163.31;5129980;27;20899;-70
2023/04/08 02:47:46;;;;;;;23.33;15.23;;;;;;;-143.84;58.18;45180.47;5129766;27;20991;-70
2023/04/08 02:50:13;;;;;;;20.30;16.37;;;;;;;-143.84;58.56;45176.66;5129992;27;20447;-70
2023/04/08 02:52:43;;;;;;;25.43;16.70;;;;;;;-143.84;59.36;45186.16;5130166;27;20434;-70
2023/04/08 02:55:11;;;;;;;21.50;16.50;;;;;;;-143.84;59.27;45167.13;5130331;27;20447;-70
2023/04/08 02:57:39;;;;;;;22.40;16.97;;;;;;;-143.84;59.53;45169.03;5130724;27;20438;-70
2023/04/08 03:00:08;;;;;;;20.57;14.80;;;;;;;-143.84;59.24;45170.94;5130227;27;20447;-70
2023/04/08 03:02:35;;;;;;;26.03;15.30;;;;;;;-143.84;59.16;45170.94;5130342;27;20438;-70
2023/04/08 03:05:04;;;;;;;33.97;15.33;;;;;;;-143.84;58.19;45167.13;5130460;27;20566;-70
2023/04/08 03:07:31;;;;;;;18.73;12.83;;;;;;;-143.84;58.38;45165.22;5130460;27;20553;-70
2023/04/08 03:10:00;;;;;;;16.67;13.32;;;;;;;-143.84;58.40;45174.75;5129928;27;20438;-70
2023/04/08 03:12:27;;;;;;;14.37;12.00;;;;;;;-143.84;58.29;45167.13;5130414;27;20552;-70
2023/04/08 03:14:54;;;;;;;13.40;11.77;;;;;;;-143.84;58.01;45189.97;5130314;27;20433;-70
2023/04/08 03:17:21;;;;;;;13.43;11.70;;;;;;;-143.84;57.96;45174.75;5130155;27;20226;-70
2023/04/08 03:19:48;;;;;;;16.93;12.50;;;;;;;-143.84;58.67;45180.47;5130110;27;20442;-70
2023/04/08 03:22:16;;;;;;;13.20;11.80;;;;;;;-143.84;58.93;45174.75;5130187;27;20851;-70
2023/04/08 03:24:43;;;;;;;15.57;12.33;;;;;;;-143.84;59.10;45167.13;5130286;27;20562;-70
2023/04/08 03:27:11;;;;;;;15.40;11.17;;;;;;;-143.84;58.90;45167.13;5129621;27;20442;-70
2023/04/08 03:29:39;;;;;;;15.27;11.90;;;;;;;-143.84;59.04;45159.50;5129375;27;20794;-70
2023/04/08 03:32:06;;;;;;;14.57;10.93;;;;;;;-143.84;60.00;45169.03;5129778;27;20447;-70
2023/04/08 03:34:34;;;;;;;17.13;11.67;;;;;;;-143.84;60.06;45176.66;5129882;27;20454;-71
2023/04/08 03:37:01;;;;;;;15.60;11.17;;;;;;;-143.84;60.68;45189.97;5130159;27;20502;-72
2023/04/08 03:39:28;;;;;;;13.63;12.10;;;;;;;-143.84;60.48;45169.03;5129562;27;20449;-72
2023/04/08 03:41:55;;;;;;;13.63;11.60;;;;;;;-143.84;61.01;45163.31;5130019;27;20502;-74
2023/04/08 03:44:24;;;;;;;20.27;12.00;;;;;;;-143.84;61.01;45167.13;5129784;28;20438;-73
2023/04/08 03:46:51;;;;;;;17.80;11.90;;;;;;;-143.84;60.91;45178.56;5129959;28;20440;-73
2023/04/08 03:49:19;;;;;;;17.20;11.90;;;;;;;-143.84;61.65;45163.31;5130000;28;20438;-74
2023/04/08 03:51:47;;;;;;;18.83;12.30;;;;;;;-143.84;62.40;45193.78;5129897;27;20441;-69
2023/04/08 03:54:14;;;;;;;25.00;16.00;;;;;;;-143.84;63.06;45199.50;5129657;27;20430;-69
2023/04/08 03:56:41;;;;;;;40.13;21.80;;;;;;;-143.84;63.49;45148.09;5129381;28;20569;-68
2023/04/08 03:59:08;;;;;;;32.43;19.33;;;;;;;-143.84;64.43;45186.16;5130358;27;20450;-69
2023/04/08 04:01:37;;;;;;;28.53;16.73;;;;;;;-143.84;65.38;45170.94;5129555;27;20442;-69
2023/04/08 04:04:04;;;;;;;29.60;18.47;;;;;;;-143.84;65.81;45199.50;5128797;27;20491;-68
2023/04/08 04:06:31;;;;;;;30.50;17.00;;;;;;;-143.84;67.08;45180.47;5129107;27;21011;-68
2023/04/08 04:08:58;;;;;;;24.88;14.05;;;;;;;-143.84;67.27;45178.56;5129523;27;20493;-68
2023/04/08 04:11:26;;;;;;;18.13;14.73;;;;;;;-143.84;68.04;45197.59;5129735;27;20245;-69
2023/04/08 04:13:53;;;;;;;24.87;14.60;;;;;;;-143.84;68.30;45205.22;5129567;27;20442;-69
2023/04/08 04:16:20;;;;;;;27.27;17.60;;;;;;;-143.84;68.54;45188.06;5129837;27;20510;-69
2023/04/08 04:18:48;;;;;;;26.43;17.50;;;;;;;-143.84;69.57;45180.47;5129679;27;20866;-69
2023/04/08 04:21:15;;;;;;;22.17;15.90;;;;;;;-143.84;70.43;45172.84;5129569;27;20503;-69
2023/04/08 04:23:43;;;;;;;22.73;16.57;;;;;;;-143.84;71.57;45178.56;5132236;27;20434;-69
2023/04/08 04:26:10;;;;;;;24.48;18.08;;;;;;;-143.84;72.33;45151.91;5133444;27;20546;-69
2023/04/08 04:28:38;;;;;;;20.73;17.73;;;;;;;-143.84;73.43;45203.31;5133490;27;20234;-69
2023/04/08 04:31:05;;;;;;;27.03;17.37;;;;;;;-143.84;74.49;45150.00;5133287;27;20495;-70
2023/04/08 04:33:32;;;;;;;25.53;19.50;;;;;;;-143.84;74.91;45163.31;5133500;27;20438;-69
2023/04/08 04:36:01;;;;;;;24.17;18.53;;;;;;;-143.84;75.44;45136.66;5133333;27;20805;-69
2023/04/08 04:38:28;;;;;;;25.60;19.70;;;;;;;-143.84;75.78;45119.53;5133222;27;20430;-70
2023/04/08 04:40:55;;;;;;;33.43;18.43;;;;;;;-143.84;75.65;45113.81;5132828;27;20237;-69
2023/04/08 04:43:22;;;;;;;22.90;19.00;;;;;;;-143.84;75.50;45117.63;5133039;27;20496;-68
2023/04/08 04:45:49;;;;;;;27.13;18.87;;;;;;;-143.84;74.89;45117.63;5133052;27;20474;-69
2023/04/08 04:48:16;;;;;;;26.93;18.40;;;;;;;-143.84;74.67;45113.81;5133305;27;20492;-69
2023/04/08 04:50:43;;;;;;;21.40;16.80;;;;;;;-143.84;73.22;45153.81;5132140;27;20943;-69
2023/04/08 04:53:12;;;;;;;21.35;17.67;;;;;;;-143.84;71.67;45130.94;5132157;27;20439;-69
2023/04/08 04:55:39;;;;;;;20.73;15.57;;;;;;;-143.84;69.43;45163.31;5132096;27;20254;-69
2023/04/08 04:58:07;;;;;;;19.50;15.27;;;;;;;-143.84;67.96;45167.13;5132767;27;20449;-69
2023/04/08 05:00:34;;;;;;;26.53;15.50;;;;;;;-143.84;66.85;45155.69;5132471;27;20437;-69
2023/04/08 05:03:01;;;;;;;19.23;14.43;;;;;;;-143.84;64.56;45151.91;5132895;27;20980;-69
2023/04/08 05:05:28;;;;;;;19.23;14.70;;;;;;;-143.84;64.40;45159.50;5132722;27;20229;-69
2023/04/08 05:07:55;;;;;;;15.90;13.40;;;;;;;-143.84;63.52;45151.91;5132652;27;20499;-70
2023/04/08 05:10:24;;;;;;;17.88;14.60;;;;;;;-143.84;61.90;45117.63;5132889;27;20511;-69
2023/04/08 05:12:51;;;;;;;18.07;12.83;;;;;;;-143.84;60.81;45148.09;5132336;27;20227;-70
2023/04/08 05:15:18;;;;;;;16.60;12.00;;;;;;;-143.84;60.69;45136.66;5131888;27;20444;-71
2023/04/08 05:17:46;;;;;;;17.08;12.43;;;;;;;-143.84;61.11;45140.47;5132280;27;20431;-71
2023/04/08 05:20:13;;;;;;;14.90;11.90;;;;;;;-143.84;60.61;45113.81;5131936;27;20201;-72
2023/04/08 05:22:41;;;;;;;22.00;14.10;;;;;;;-143.84;60.55;45119.53;5131952;27;20499;-71
2023/04/08 05:25:09;;;;;;;25.92;13.48;;;;;;;-143.84;59.30;45134.75;5132163;27;20994;-71
2023/04/08 05:27:39;;;;;;;16.10;12.47;;;;;;;-143.84;57.11;45121.44;5132268;27;20603;-71
2023/04/08 05:30:08;;;;;;;15.53;12.87;;;;;;;-143.84;57.93;45121.44;5132005;27;20441;-71
2023/04/08 05:32:35;;;;;;;14.57;11.17;;;;;;;-143.84;56.96;45136.66;5132379;27;21185;-71
2023/04/08 05:35:03;;;;;;;12.13;10.60;;;;;;;-143.84;56.88;45110.00;5131816;27;20475;-71
2023/04/08 05:37:30;;;;;;;13.30;11.10;;;;;;;-143.84;56.75;45136.66;5132609;27;20538;-71
2023/04/08 05:39:58;;;;;;;12.50;11.13;;;;;;;-143.84;55.34;45125.22;5132050;27;20478;-72
2023/04/08 05:42:25;;;;;;;11.40;9.73;;;;;;;-143.84;54.77;45094.78;5132000;27;20500;-72
2023/04/08 05:44:54;;;;;;;12.73;10.87;;;;;;;-143.84;53.72;45110.00;5131889;27;20953;-71
2023/04/08 05:47:21;;;;;;;11.97;9.80;;;;;;;-143.84;54.17;45123.34;5131864;27;20435;-71
2023/04/08 05:49:48;;;;;;;12.05;10.70;;;;;;;-143.84;52.88;45132.84;5131705;27;20446;-71
2023/04/08 05:52:16;;;;;;;17.63;11.35;;;;;;;-143.84;51.90;45130.94;5131404;27;20230;-71
2023/04/08 05:54:43;;;;;;;13.10;11.47;;;;;;;-143.84;51.16;45119.53;5131066;27;20196;-71
2023/04/08 05:57:10;;;;;;;15.80;10.33;;;;;;;-143.84;49.83;45117.63;5131062;27;20522;-72
2023/04/08 05:59:38;;;;;;;18.55;11.60;;;;;;;-143.84;49.39;45121.44;5131040;27;20430;-71
2023/04/08 06:02:06;;;;;;;14.27;10.32;;;;;;;-143.84;49.85;45130.94;5130838;27;20254;-71
2023/04/08 06:04:33;;;;;;;11.97;9.83;;;;;;;-143.84;49.61;45130.94;5130993;27;20261;-71
2023/04/08 06:07:01;;;;;;;16.27;11.40;;;;;;;-143.84;49.99;45113.81;5131255;27;20476;-71
2023/04/08 06:09:29;;;;;;;12.90;10.93;;;;;;;-143.84;48.00;45113.81;5131459;27;20482;-71
2023/04/08 06:11:56;;;;;;;18.60;10.70;;;;;;;-143.84;48.03;45102.38;5131218;27;20845;-71
2023/04/08 06:14:23;;;;;;;13.50;10.40;;;;;;;-143.84;48.15;45115.72;5131208;27;20435;-71
2023/04/08 06:16:52;;;;;;;12.17;10.17;;;;;;;-143.84;46.09;45089.06;5131372;27;20442;-71
2023/04/08 06:19:20;;;;;;;17.97;11.57;;;;;;;-143.84;46.95;45108.09;5131153;27;20991;-71
2023/04/08 06:21:48;;;;;;;14.13;9.43;;;;;;;-143.84;46.07;45121.44;5130923;27;20452;-71
2023/04/08 06:24:15;;;;;;;13.03;9.97;;;;;;;-143.84;47.49;45110.00;5131009;27;20477;-71
2023/04/08 06:26:43;;;;;;;22.47;12.10;;;;;;;-143.84;46.90;45129.03;5130453;27;20970;-71
2023/04/08 06:29:10;;;;;;;11.00;9.57;;;;;;;-143.84;48.16;45081.44;5130455;27;20445;-71
2023/04/08 06:31:37;;;;;;;10.37;8.40;;;;;;;-143.84;45.95;45140.47;5130419;27;20446;-71
2023/04/08 06:34:04;;;;;;;19.00;10.45;;;;;;;-143.84;45.83;45125.22;5130399;27;20454;-71
2023/04/08 06:36:33;;;;;;;11.60;9.77;;;;;;;-143.84;45.03;45085.25;5129658;27;20194;-71
2023/04/08 06:39:00;;;;;;;14.00;10.47;;;;;;;-143.84;44.70;45136.66;5130806;27;20423;-71
2023/04/08 06:41:27;;;;;;;16.93;9.30;;;;;;;-143.84;44.15;45102.38;5130240;27;20494;-71
2023/04/08 06:43:54;;;;;;;11.68;9.43;;;;;;;-143.84;43.33;45092.88;5130374;27;20438;-71
2023/04/08 06:46:22;;;;;;;24.37;11.20;;;;;;;-143.84;44.32;45110.00;5129121;27;20253;-70
2023/04/08 06:48:49;;;;;;;14.88;9.85;;;;;;;-143.84;42.91;45102.38;5129953;27;20442;-71
2023/04/08 06:51:16;;;;;;;10.80;9.70;;;;;;;-143.84;43.26;45087.16;5130309;27;20198;-70
2023/04/08 06:53:44;;;;;;;11.43;9.40;;;;;;;-143.84;42.67;45110.00;5129836;27;20449;-70
2023/04/08 06:56:12;;;;;;;11.17;9.13;;;;;;;-143.84;43.13;45106.19;5129724;27;21061;-70
2023/04/08 06:58:39;;;;;;;10.20;9.10;;;;;;;-143.84;43.31;45089.06;5130362;27;20531;-71
2023/04/08 07:01:06;;;;;;;13.53;9.50;;;;;;;-143.84;43.90;45092.88;5130197;27;20442;-70
2023/04/08 07:03:33;;;;;;;9.97;8.93;;;;;;;-143.84;44.00;45117.63;5129640;27;20430;-71
2023/04/08 07:06:01;;;;;;;17.07;9.07;;;;;;;-143.84;43.56;45106.19;5129561;27;20481;-70
2023/04/08 07:08:28;;;;;;;17.83;9.50;;;;;;;-143.84;43.87;45117.63;5129712;27;20435;-70
2023/04/08 07:10:56;;;;;;;13.27;9.90;;;;;;;-143.84;44.12;45081.44;5129798;27;20204;-70
2023/04/08 07:13:23;;;;;;;20.40;9.27;;;;;;;-143.84;44.45;45102.38;5130242;27;20472;-70
2023/04/08 07:15:50;;;;;;;12.07;8.67;;;;;;;-143.84;44.68;45123.34;5129879;27;20513;-71
2023/04/08 07:18:20;;;;;;;10.10;8.67;;;;;;;-143.84;43.47;45094.78;5130599;27;21314;-70
2023/04/08 07:20:51;;;;;;;14.03;8.60;;;;;;;-143.84;42.58;45096.66;5130116;27;20437;-71
2023/04/08 07:23:19;;;;;;;10.70;8.40;;;;;;;-143.84;42.82;45089.06;5130342;27;20439;-69
2023/04/08 07:25:46;;;;;;;11.32;8.45;;;;;;;-143.84;43.66;45100.47;5130035;27;20469;-70
2023/04/08 07:28:15;;;;;;;9.40;8.33;;;;;;;-143.84;42.45;45111.91;5130062;27;20197;-70
2023/04/08 07:30:42;;;;;;;11.07;9.53;;;;;;;-143.84;44.58;45102.38;5129876;27;20446;-70
2023/04/08 07:33:09;;;;;;;13.38;9.00;;;;;;;-143.84;43.55;45094.78;5130003;27;20453;-70
2023/04/08 07:35:36;;;;;;;12.33;9.93;;;;;;;-143.84;43.84;45098.56;5130055;27;20567;-71
2023/04/08 07:38:08;;;;;;;10.10;8.30;;;;;;;-143.84;43.28;45106.19;5129894;27;20484;-71
2023/04/08 07:40:35;;;;;;;9.20;7.53;;;;;;;-143.84;42.31;45117.63;5129615;27;20864;-70
2023/04/08 07:43:02;;;;;;;12.80;8.87;;;;;;;-143.84;43.30;45102.38;5129471;27;20437;-70
2023/04/08 07:45:30;;;;;;;10.00;9.00;;;;;;;-143.84;44.25;45110.00;5128944;27;21131;-71
2023/04/08 07:47:57;;;;;;;11.07;8.63;;;;;;;-143.84;44.31;45089.06;5129539;27;20440;-70
2023/04/08 07:50:25;;;;;;;10.80;8.10;;;;;;;-143.84;43.70;45094.78;5130305;27;20877;-70
2023/04/08 07:52:53;;;;;;;9.87;7.97;;;;;;;-143.84;44.20;45081.44;5129677;27;20447;-70
2023/04/08 07:55:20;;;;;;;9.77;8.77;;;;;;;-143.84;45.06;45113.81;5129530;27;20526;-71
2023/04/08 07:57:47;;;;;;;12.90;9.50;;;;;;;-143.84;45.12;45090.97;5132377;27;20449;-71
2023/04/08 08:00:20;;;;;;;12.10;8.40;;;;;;;-143.84;44.86;45104.28;5133342;27;20442;-70
2023/04/08 08:02:48;;;;;;;10.63;7.97;;;;;;;-143.84;43.71;45081.44;5134012;27;20896;-70
2023/04/08 08:05:16;;;;;;;9.23;7.70;;;;;;;-143.84;44.55;45102.38;5134001;27;20447;-70
2023/04/08 08:07:43;;;;;;;10.95;9.43;;;;;;;-143.84;44.76;45138.56;5134062;27;20519;-70
2023/04/08 08:10:10;;;;;;;8.80;7.90;;;;;;;-143.84;44.11;45102.38;5133879;27;20199;-70
2023/04/08 08:12:37;;;;;;;12.10;8.93;;;;;;;-143.84;46.26;45119.53;5133735;27;20499;-70
2023/04/08 08:15:05;;;;;;;8.67;7.77;;;;;;;-143.84;43.35;45111.91;5133360;27;20679;-70
2023/04/08 08:17:32;;;;;;;8.90;7.93;;;;;;;-143.84;45.95;45125.22;5133699;27;20816;-70
2023/04/08 08:20:03;;;;;;;14.20;9.27;;;;;;;-143.84;45.12;45094.78;5133609;27;20492;-70
2023/04/08 08:22:30;;;;;;;9.00;8.07;;;;;;;-143.84;44.53;45094.78;5133490;27;20431;-70
2023/04/08 08:24:58;;;;;;;9.10;8.20;;;;;;;-143.84;43.46;45119.53;5133645;27;20445;-70
2023/04/08 08:27:25;;;;;;;9.50;8.60;;;;;;;-143.84;45.83;45110.00;5133348;27;20509;-70
2023/04/08 08:29:53;;;;;;;12.30;8.90;;;;;;;-143.84;43.41;45111.91;5133349;27;20438;-70
2023/04/08 08:32:20;;;;;;;11.10;9.27;;;;;;;-143.84;45.65;45119.53;5133311;27;20442;-70
2023/04/08 08:34:47;;;;;;;9.23;8.33;;;;;;;-143.84;44.31;45092.88;5133383;27;20442;-70
2023/04/08 08:37:15;;;;;;;11.40;8.30;;;;;;;-143.84;43.46;45117.63;5133241;27;20462;-70
2023/04/08 08:39:42;;;;;;;9.63;8.00;;;;;;;-143.84;42.73;45121.44;5133255;27;20489;-70
2023/04/08 08:42:20;;;;;;;7.87;7.03;;;;;;;-143.84;40.74;45102.38;5133272;27;20454;-70
2023/04/08 08:44:47;;;;;;;8.50;7.10;;;;;;;-143.84;41.53;45098.56;5133095;27;20438;-70
2023/04/08 08:47:15;;;;;;;8.30;7.60;;;;;;;-143.84;42.38;45094.78;5132936;27;20273;-69
2023/04/08 08:49:42;;;;;;;11.60;8.48;;;;;;;-143.84;42.91;45087.16;5132920;27;20467;-69
2023/04/08 08:52:10;;;;;;;14.07;9.77;;;;;;;-143.84;44.36;45100.47;5132666;27;20582;-69
2023/04/08 08:54:38;;;;;;;10.87;8.90;;;;;;;-143.84;45.67;45115.72;5132749;27;20445;-69
2023/04/08 08:57:06;;;;;;;10.35;9.15;;;;;;;-143.84;46.62;45094.78;5133059;27;20476;-69
2023/04/08 08:59:33;;;;;;;10.50;8.73;;;;;;;-143.84;47.14;45111.91;5132869;27;20244;-69
2023/04/08 09:02:01;;;;;;;8.20;7.35;;;;;;;-143.84;44.57;45102.38;5132795;27;20517;-69
2023/04/08 09:04:28;;;;;;;9.67;8.07;;;;;;;-143.84;47.91;45115.72;5132679;27;20208;-69
2023/04/08 09:07:09;;;;;;;8.43;7.57;;;;;;;-143.84;48.86;45102.38;5132323;27;20488;-69
2023/04/08 09:09:50;;;;;;;10.83;9.73;;;;;;;-143.84;53.35;45117.63;5131371;27;20445;-70
2023/04/08 09:12:18;;;;;;;20.63;10.77;;;;;;;-143.84;55.32;45129.03;5132406;27;20955;-70
2023/04/08 09:14:45;;;;;;;9.87;8.87;;;;;;;-143.84;55.47;45115.72;5132508;27;20200;-70
2023/04/08 09:17:12;;;;;;;12.90;10.17;;;;;;;-143.84;55.94;45153.81;5131828;27;20495;-70
2023/04/08 09:19:40;;;;;;;13.07;10.90;;;;;;;-143.84;58.08;45106.19;5131697;27;20475;-70
2023/04/08 09:22:08;;;;;;;9.82;8.70;;;;;;;-143.84;59.10;45159.50;5131304;27;20502;-70
2023/04/08 09:24:36;;;;;;;17.23;11.87;;;;;;;-143.84;60.36;45115.72;5132184;27;20558;-70
2023/04/08 09:27:05;;;;;;;12.60;11.30;;;;;;;-143.84;61.30;45115.72;5132203;27;21033;-70
2023/04/08 09:29:33;;;;;;;17.53;10.93;;;;;;;-143.84;60.92;45121.44;5132485;27;20208;-70
2023/04/08 09:32:01;;;;;;;12.40;8.33;;;;;;;-143.84;59.20;45127.13;5132318;27;20533;-69
2023/04/08 09:34:31;;;;;;;10.57;8.90;;;;;;;-143.84;60.18;45132.84;5131969;27;20422;-70
2023/04/08 09:36:58;;;;;;;10.63;8.87;;;;;;;-143.84;61.80;45146.19;5131244;27;20442;-70
2023/04/08 09:39:25;;;;;;;12.03;9.10;;;;;;;-143.84;62.65;45125.22;5131618;27;20442;-70
2023/04/08 09:41:53;;;;;;;9.33;8.43;;;;;;;-143.84;60.25;45129.03;5131944;27;20450;-69
2023/04/08 09:44:25;;;;;;;14.60;8.80;;;;;;;-143.84;60.87;45123.34;5132017;27;20443;-70
2023/04/08 09:47:01;;;;;;;13.60;8.90;;;;;;;-143.84;62.08;45140.47;5131950;27;20482;-70
2023/04/08 09:49:30;;;;;;;10.30;8.57;;;;;;;-143.84;61.36;45155.69;5131782;27;20453;-70
2023/04/08 09:52:07;;;;;;;11.03;9.77;;;;;;;-143.84;63.29;45119.53;5132162;27;20432;-70
2023/04/08 09:54:47;;;;;;;10.85;9.15;;;;;;;-143.84;61.36;45130.94;5131716;27;20460;-70
2023/04/08 09:57:22;;;;;;;10.17;8.87;;;;;;;-143.84;60.04;45125.22;5131737;27;20208;-70
2023/04/08 09:59:57;;;;;;;14.63;10.37;;;;;;;-143.84;61.59;45129.03;5131652;27;21036;-70
2023/04/08 10:02:31;;;;;;;10.03;7.80;;;;;;;-143.84;59.92;45140.47;5131825;27;20503;-70
2023/04/08 10:05:00;;;;;;;9.10;8.20;;;;;;;-143.84;60.43;45129.03;5131533;27;20808;-70
2023/04/08 10:07:27;;;;;;;17.30;9.20;;;;;;;-143.84;60.92;45127.13;5131381;27;20517;-70
2023/04/08 10:09:54;;;;;;;9.57;7.70;;;;;;;-143.84;56.74;45127.13;5131279;27;20951;-70
2023/04/08 10:12:22;;;;;;;13.97;9.20;;;;;;;-143.84;57.53;45129.03;5131354;27;20439;-70
2023/04/08 10:15:24;;;;;;;11.03;9.93;;;;;;;-143.84;53.72;45119.53;5131340;27;20444;-70
2023/04/08 10:17:52;;;;;;;9.60;8.60;;;;;;;-143.84;53.35;45123.34;5131190;27;20571;-70
2023/04/08 10:20:44;;;;;;;11.87;7.80;;;;;;;-143.84;55.94;45102.38;5129067;27;20439;-70
2023/04/08 10:23:12;;;;;;;13.80;11.13;;;;;;;-143.84;55.23;45129.03;5130598;27;20450;-70
2023/04/08 10:25:41;;;;;;;15.50;7.67;;;;;;;-143.84;54.80;45090.97;5129991;27;20448;-71
2023/04/08 10:28:27;;;;;;;7.07;6.53;;;;;;;-143.84;53.96;45117.63;5130646;27;20517;-71
2023/04/08 10:30:57;;;;;;;8.77;7.83;;;;;;;-143.84;57.05;45121.44;5130294;27;20443;-71
2023/04/08 10:33:31;;;;;;;9.33;8.13;;;;;;;-143.84;59.07;45113.81;5130113;27;20936;-71
2023/04/08 10:36:03;;;;;;;7.23;6.63;;;;;;;-143.84;54.35;45144.28;5130769;27;20441;-71
2023/04/08 10:38:30;;;;;;;9.00;8.07;;;;;;;-143.84;58.68;45096.66;5131227;27;20520;-71
2023/04/08 10:40:58;;;;;;;8.95;7.90;;;;;;;-143.84;59.01;45121.44;5130586;27;20528;-71
2023/04/08 10:43:25;;;;;;;13.00;7.33;;;;;;;-143.84;57.05;45090.97;5130943;27;20598;-71
2023/04/08 10:45:54;;;;;;;8.48;7.68;;;;;;;-143.84;59.04;45121.44;5129992;27;20823;-71
2023/04/08 10:48:24;;;;;;;8.00;7.20;;;;;;;-143.84;54.59;45106.19;5129765;27;20283;-71
2023/04/08 10:50:55;;;;;;;8.98;7.78;;;;;;;-143.84;57.56;45119.53;5129759;27;20518;-71
2023/04/08 10:53:27;;;;;;;8.03;7.23;;;;;;;-143.84;54.42;45129.03;5130052;27;20205;-71
2023/04/08 10:55:54;;;;;;;10.40;7.50;;;;;;;-143.84;57.19;45110.00;5129813;27;20438;-71
2023/04/08 10:58:21;;;;;;;9.53;7.90;;;;;;;-143.84;56.73;45123.34;5129870;27;20999;-71
2023/04/08 11:00:48;;;;;;;7.00;6.30;;;;;;;-143.84;55.39;45119.53;5130331;27;20440;-71
2023/04/08 11:03:15;;;;;;;9.68;7.22;;;;;;;-143.84;55.84;45119.53;5130033;27;20503;-71
2023/04/08 11:05:44;;;;;;;7.63;6.93;;;;;;;-143.84;55.71;45119.53;5129966;27;20195;-71
2023/04/08 11:08:11;;;;;;;10.27;8.13;;;;;;;-143.84;58.65;45119.53;5129705;27;20485;-71
2023/04/08 11:10:39;;;;;;;11.63;7.63;;;;;;;-143.84;55.60;45104.28;5130385;27;20799;-71
2023/04/08 11:13:09;;;;;;;10.27;8.00;;;;;;;-143.84;57.12;45110.00;5130039;27;20444;-71